Louisburg, Minnesota
Current Conditions -  °F | °C
As of 12:53 PM on Thursday 23 Oct 2014 (Local Time) from KDXX Reporting Station
Clear Clear  
Wind Chill: 72°   Ceiling: Unl
Heat Index: 72°   Visibility: 10mi
Dew Point: 37°   Wind: 7mph
Humidity: 29%   Direction: 260°W
Pressure: 29.97"   Gusts: NA
Location:  44.9929°N, 96.1617°W
Report Text: KDXX 231753Z AUTO 26006KT 10SM CLR 22/03 A2997 RMK AO2
Loading
Personal Weather Stations






























Interactive Weather Map
Tropical Storm Tracking
New forecast layout! Learn more

10-Day Weather Forecast

Advertisements
Track Severe Weather on mobile